Time;durP1;ratioP1;P1;durP2;ratioP2;P2;SDS_P1;SDS_P2;PMS_P1;PMS_P2;Temp;Humidity;BMP_temperature;BMP_pressure;BME280_temperature;BME280_humidity;BME280_pressure;Samples;Min_cycle;Max_cycle;Signal;HPM_P1;HPM_P2
2022/07/17 00:01:55;;;;;;;1.47;0.90;;;16.60;86.10;;;;;;6135609;23;20418;-79
2022/07/17 00:04:22;;;;;;;1.43;1.00;;;16.60;85.80;;;;;;6129443;23;20560;-80
2022/07/17 00:06:49;;;;;;;1.50;1.00;;;16.60;86.50;;;;;;6128000;23;20429;-79
2022/07/17 00:09:19;;;;;;;1.50;1.00;;;16.50;86.20;;;;;;6128927;23;20426;-81
2022/07/17 00:11:46;;;;;;;1.47;1.00;;;16.50;86.90;;;;;;6127554;23;20819;-80
2022/07/17 00:14:13;;;;;;;1.50;1.00;;;16.50;85.80;;;;;;6129494;23;20445;-81
2022/07/17 00:16:40;;;;;;;1.50;1.00;;;16.40;86.10;;;;;;6140361;23;20447;-80
2022/07/17 00:19:09;;;;;;;1.50;1.00;;;16.40;86.60;;;;;;6128391;23;20453;-80
2022/07/17 00:21:36;;;;;;;1.50;1.00;;;16.40;87.20;;;;;;6137456;23;20512;-79
2022/07/17 00:24:06;;;;;;;1.50;1.00;;;16.30;86.90;;;;;;6128597;23;21017;-79
2022/07/17 00:26:34;;;;;;;1.50;1.00;;;16.30;86.40;;;;;;6134537;23;20418;-80
2022/07/17 00:29:03;;;;;;;1.43;0.90;;;16.20;87.50;;;;;;6131085;23;20953;-81
2022/07/17 00:31:31;;;;;;;1.47;1.00;;;16.20;87.80;;;;;;6127099;23;20453;-80
2022/07/17 00:33:58;;;;;;;1.50;1.10;;;16.20;87.80;;;;;;6128300;23;20446;-79
2022/07/17 00:36:25;;;;;;;1.50;1.00;;;16.20;87.90;;;;;;6126775;23;20449;-79
2022/07/17 00:38:52;;;;;;;1.47;0.90;;;16.20;88.00;;;;;;6137508;23;20489;-80
2022/07/17 00:41:19;;;;;;;1.47;1.00;;;16.20;89.10;;;;;;6136899;23;20418;-80
2022/07/17 00:43:48;;;;;;;1.47;1.00;;;16.10;87.90;;;;;;6138353;23;20438;-80
2022/07/17 00:46:15;;;;;;;1.43;1.00;;;16.10;88.00;;;;;;6128150;23;20912;-79
2022/07/17 00:48:45;;;;;;;1.47;1.00;;;16.10;87.90;;;;;;6129223;23;20414;-81
2022/07/17 00:51:13;;;;;;;1.47;1.00;;;16.10;88.20;;;;;;6129349;23;20433;-80
2022/07/17 00:53:42;;;;;;;1.47;1.00;;;16.00;88.10;;;;;;6128376;23;20480;-80
2022/07/17 00:56:10;;;;;;;1.50;0.90;;;16.00;89.20;;;;;;6127979;23;20525;-80
2022/07/17 00:58:38;;;;;;;1.47;1.00;;;16.00;89.30;;;;;;6128403;23;20429;-80
2022/07/17 01:01:07;;;;;;;1.50;1.10;;;16.00;88.80;;;;;;6125477;23;20426;-80
2022/07/17 01:03:34;;;;;;;1.50;0.90;;;15.90;88.30;;;;;;6127630;23;20441;-79
2022/07/17 01:06:02;;;;;;;1.50;1.00;;;15.90;89.20;;;;;;6129429;23;20421;-80
2022/07/17 01:08:29;;;;;;;1.50;0.90;;;15.90;89.20;;;;;;6129662;23;20927;-81
2022/07/17 01:10:57;;;;;;;1.47;1.00;;;15.90;89.60;;;;;;6127259;23;20414;-81
2022/07/17 01:13:24;;;;;;;1.43;1.00;;;15.80;89.40;;;;;;6139000;23;20881;-81
2022/07/17 01:15:55;;;;;;;1.50;0.97;;;15.80;88.80;;;;;;6128352;23;20478;-81
2022/07/17 01:18:24;;;;;;;1.47;1.00;;;15.80;88.60;;;;;;6141912;23;20408;-80
2022/07/17 01:20:52;;;;;;;1.47;1.00;;;15.80;89.90;;;;;;6128174;23;20421;-80
2022/07/17 01:23:20;;;;;;;1.47;1.00;;;15.70;90.10;;;;;;6128289;23;20446;-80
2022/07/17 01:25:48;;;;;;;1.47;0.97;;;15.70;89.80;;;;;;6127625;23;20574;-81
2022/07/17 01:28:15;;;;;;;1.47;0.90;;;15.70;90.00;;;;;;6137711;23;20421;-80
2022/07/17 01:30:48;;;;;;;1.47;0.90;;;15.70;90.20;;;;;;6137034;23;20421;-80
2022/07/17 01:33:15;;;;;;;1.50;1.00;;;15.60;89.50;;;;;;6126133;23;20819;-80
2022/07/17 01:35:42;;;;;;;1.73;1.63;;;15.60;90.70;;;;;;6127556;23;20450;-80
2022/07/17 01:38:12;;;;;;;1.43;1.00;;;15.60;90.50;;;;;;6144083;23;20414;-80
2022/07/17 01:40:40;;;;;;;1.50;1.00;;;15.60;91.00;;;;;;6138223;23;20417;-80
2022/07/17 01:43:08;;;;;;;1.47;0.90;;;15.60;91.10;;;;;;6126699;23;20435;-80
2022/07/17 01:45:35;;;;;;;1.50;0.90;;;15.60;90.30;;;;;;6136693;23;20421;-80
2022/07/17 01:48:03;;;;;;;1.47;0.90;;;15.50;91.40;;;;;;6138492;23;20449;-80
2022/07/17 01:50:30;;;;;;;1.40;1.00;;;15.50;91.30;;;;;;6128136;23;20524;-81
2022/07/17 01:52:57;;;;;;;1.47;0.90;;;15.50;91.00;;;;;;6125111;23;20428;-81
2022/07/17 01:55:24;;;;;;;1.43;1.00;;;15.50;91.70;;;;;;6136775;23;20782;-81
2022/07/17 01:57:53;;;;;;;1.50;0.97;;;15.50;92.10;;;;;;6116611;23;20423;-81
2022/07/17 02:00:22;;;;;;;1.50;1.00;;;15.40;91.80;;;;;;6127371;23;20438;-83
2022/07/17 02:02:49;;;;;;;1.50;1.00;;;15.40;92.30;;;;;;6126950;23;20441;-83
2022/07/17 02:05:16;;;;;;;1.47;1.00;;;15.40;92.10;;;;;;6128900;23;20445;-83
2022/07/17 02:07:44;;;;;;;1.47;1.00;;;15.30;91.90;;;;;;6130798;23;20609;-82
2022/07/17 02:10:13;;;;;;;1.47;1.00;;;15.30;92.10;;;;;;6130031;23;20429;-82
2022/07/17 02:12:40;;;;;;;1.43;0.90;;;15.30;92.50;;;;;;6127088;23;20948;-80
2022/07/17 02:15:10;;;;;;;1.50;1.00;;;15.20;92.80;;;;;;6128706;23;20500;-82
2022/07/17 02:17:37;;;;;;;1.43;1.00;;;15.20;93.70;;;;;;6138885;23;20414;-80
2022/07/17 02:20:05;;;;;;;1.47;0.90;;;15.20;94.30;;;;;;6129095;23;20422;-83
2022/07/17 02:22:32;;;;;;;1.43;1.00;;;15.10;93.50;;;;;;6128368;23;20485;-84
2022/07/17 02:24:59;;;;;;;1.50;0.90;;;15.10;93.10;;;;;;6139206;23;20473;-82
2022/07/17 02:27:26;;;;;;;1.50;1.00;;;15.10;93.80;;;;;;6129966;23;20429;-83
2022/07/17 02:29:53;;;;;;;1.47;0.90;;;15.10;94.20;;;;;;6138943;23;20453;-83
2022/07/17 02:32:22;;;;;;;1.47;1.00;;;15.00;94.90;;;;;;6138344;23;20476;-84
2022/07/17 02:34:49;;;;;;;1.47;1.00;;;15.00;95.40;;;;;;6130087;23;20528;-81
2022/07/17 02:37:17;;;;;;;1.50;1.00;;;15.00;94.80;;;;;;6145504;23;20434;-79
2022/07/17 02:39:53;;;;;;;1.50;1.00;;;15.00;94.90;;;;;;6143604;23;20470;-85
2022/07/17 02:42:21;;;;;;;1.50;1.00;;;15.00;94.70;;;;;;6128397;23;20769;-82
2022/07/17 02:44:48;;;;;;;1.47;1.00;;;15.00;95.60;;;;;;6129293;23;20465;-82
2022/07/17 02:47:23;;;;;;;1.47;1.00;;;14.90;95.10;;;;;;6130202;23;20414;-84
2022/07/17 02:49:51;;;;;;;1.50;1.00;;;14.90;95.30;;;;;;6130012;23;20811;-83
2022/07/17 02:52:18;;;;;;;1.47;1.00;;;14.90;93.90;;;;;;6129902;23;20520;-80
2022/07/17 02:54:45;;;;;;;1.40;1.00;;;14.90;94.60;;;;;;6130150;23;20455;-83
2022/07/17 02:57:13;;;;;;;1.43;1.00;;;14.80;95.00;;;;;;6129699;23;20446;-81
2022/07/17 02:59:43;;;;;;;1.50;1.00;;;14.80;95.50;;;;;;6129327;23;20426;-80
2022/07/17 03:02:10;;;;;;;1.50;1.00;;;14.80;95.40;;;;;;6129473;23;20410;-83
2022/07/17 03:04:39;;;;;;;1.50;1.00;;;14.80;95.50;;;;;;6132845;23;21079;-82
2022/07/17 03:07:06;;;;;;;1.50;1.03;;;14.80;96.40;;;;;;6132174;23;20420;-82
2022/07/17 03:09:34;;;;;;;1.43;1.00;;;14.70;95.50;;;;;;6141555;23;20429;-83
2022/07/17 03:12:01;;;;;;;1.47;1.00;;;14.70;94.80;;;;;;6140408;23;20501;-80
2022/07/17 03:14:29;;;;;;;1.50;1.00;;;14.70;94.70;;;;;;6132209;23;20441;-82
2022/07/17 03:16:56;;;;;;;1.50;0.90;;;14.70;94.90;;;;;;6131845;23;20450;-83
2022/07/17 03:19:23;;;;;;;1.47;1.00;;;14.60;94.80;;;;;;6140774;23;20432;-80
2022/07/17 03:21:52;;;;;;;1.50;1.00;;;14.60;94.70;;;;;;6141566;23;20480;-84
2022/07/17 03:24:20;;;;;;;1.40;0.90;;;14.50;95.10;;;;;;6132564;23;20469;-85
2022/07/17 03:26:47;;;;;;;1.47;1.00;;;14.50;96.00;;;;;;6142003;23;20507;-82
2022/07/17 03:29:17;;;;;;;1.40;1.00;;;14.50;96.50;;;;;;6131003;23;20449;-82
2022/07/17 03:31:44;;;;;;;1.50;1.00;;;14.50;96.90;;;;;;6130921;23;20934;-83
2022/07/17 03:34:12;;;;;;;1.47;1.00;;;14.50;96.40;;;;;;6131001;23;20505;-80
2022/07/17 03:36:39;;;;;;;1.50;1.00;;;14.50;95.70;;;;;;6129353;23;20987;-82
2022/07/17 03:39:08;;;;;;;1.43;1.00;;;14.50;95.30;;;;;;6131317;23;20414;-84
2022/07/17 03:41:36;;;;;;;1.43;1.00;;;14.50;95.40;;;;;;6141008;23;20413;-83
2022/07/17 03:44:04;;;;;;;1.40;1.00;;;14.40;97.10;;;;;;6134309;23;20438;-83
2022/07/17 03:46:31;;;;;;;1.50;1.00;;;14.40;96.50;;;;;;6136276;23;20421;-82
2022/07/17 03:52:10;;;;;;;1.47;0.90;;;14.40;96.30;;;;;;6084275;23;20507;-82
2022/07/17 03:54:38;;;;;;;1.47;1.00;;;14.40;97.80;;;;;;6134026;23;21003;-87
2022/07/17 03:57:06;;;;;;;1.43;1.00;;;14.40;97.30;;;;;;6142488;23;20783;-84
2022/07/17 03:59:33;;;;;;;1.40;1.10;;;14.40;97.00;;;;;;6132886;23;20444;-84
2022/07/17 04:02:01;;;;;;;1.50;0.93;;;14.40;97.30;;;;;;6131216;23;20422;-80
2022/07/17 04:04:28;;;;;;;1.50;1.00;;;14.40;98.20;;;;;;6143716;23;20436;-83
2022/07/17 04:06:56;;;;;;;1.47;1.00;;;14.40;98.00;;;;;;6143212;23;20459;-81
2022/07/17 04:09:28;;;;;;;1.47;1.00;;;14.40;98.20;;;;;;6147583;23;20421;-81
2022/07/17 04:11:57;;;;;;;1.50;1.00;;;14.40;98.20;;;;;;6141707;23;20496;-82
2022/07/17 04:14:24;;;;;;;1.47;1.00;;;14.40;98.20;;;;;;6143443;23;20434;-81
2022/07/17 04:16:52;;;;;;;1.50;1.00;;;14.40;98.20;;;;;;6143318;23;20455;-83
2022/07/17 04:19:19;;;;;;;1.43;1.00;;;14.40;98.20;;;;;;6142739;23;20426;-81
2022/07/17 04:21:50;;;;;;;1.50;1.00;;;14.40;98.20;;;;;;6132835;23;20429;-82
2022/07/17 04:24:17;;;;;;;1.47;1.00;;;14.40;98.20;;;;;;6144655;23;20521;-82
2022/07/17 04:26:52;;;;;;;1.50;1.00;;;14.40;98.20;;;;;;6132805;23;20424;-84
2022/07/17 04:29:23;;;;;;;1.43;1.00;;;14.50;98.20;;;;;;6133721;23;20590;-83
2022/07/17 04:31:51;;;;;;;1.47;1.00;;;14.50;98.20;;;;;;6132511;23;20429;-82
2022/07/17 04:34:20;;;;;;;1.50;1.00;;;14.50;98.20;;;;;;6142276;23;20446;-81
2022/07/17 04:36:47;;;;;;;1.47;1.00;;;14.50;98.20;;;;;;6140113;23;20505;-82
2022/07/17 04:39:14;;;;;;;1.43;1.00;;;14.50;98.20;;;;;;6146028;23;20424;-84
2022/07/17 04:41:45;;;;;;;1.47;1.00;;;14.50;98.20;;;;;;6132105;23;21055;-82
2022/07/17 04:44:12;;;;;;;1.47;1.00;;;14.60;98.20;;;;;;6143566;23;20668;-83
2022/07/17 04:46:41;;;;;;;1.47;1.00;;;14.60;98.20;;;;;;6132295;23;20418;-83
2022/07/17 04:49:09;;;;;;;1.47;1.00;;;14.60;98.20;;;;;;6142296;23;20436;-82
2022/07/17 04:51:36;;;;;;;1.50;1.00;;;14.70;98.20;;;;;;6132759;23;20426;-81
2022/07/17 04:54:03;;;;;;;1.47;1.00;;;14.80;98.20;;;;;;6131714;23;20446;-83
2022/07/17 04:56:32;;;;;;;1.50;1.00;;;14.80;98.20;;;;;;6141223;23;21133;-84
2022/07/17 04:59:00;;;;;;;1.47;0.97;;;14.90;98.20;;;;;;6141823;23;20438;-83
2022/07/17 05:01:33;;;;;;;1.50;1.00;;;15.00;98.20;;;;;;6141343;23;20406;-83
2022/07/17 05:04:04;;;;;;;1.50;1.00;;;15.10;98.20;;;;;;6144252;23;20461;-82
2022/07/17 05:06:31;;;;;;;1.50;1.00;;;15.20;97.90;;;;;;6143333;23;20414;-85
2022/07/17 05:09:01;;;;;;;1.50;0.93;;;15.30;97.50;;;;;;6146961;23;20817;-84
2022/07/17 05:11:31;;;;;;;1.50;0.97;;;15.50;96.80;;;;;;6143658;23;20481;-82
2022/07/17 05:14:06;;;;;;;1.47;0.90;;;15.70;96.10;;;;;;6143455;23;20498;-81
2022/07/17 05:16:34;;;;;;;1.50;1.00;;;15.90;95.50;;;;;;6141389;23;20464;-83
2022/07/17 05:19:03;;;;;;;1.50;1.00;;;16.20;94.90;;;;;;6132576;23;20432;-81
2022/07/17 05:21:44;;;;;;;1.50;1.00;;;16.40;94.40;;;;;;6132364;23;20426;-82
2022/07/17 05:24:11;;;;;;;1.50;1.00;;;16.70;93.80;;;;;;6143036;23;20446;-83
2022/07/17 05:26:38;;;;;;;1.43;0.90;;;16.90;92.50;;;;;;6141347;23;20414;-82
2022/07/17 05:29:06;;;;;;;1.47;0.90;;;17.00;92.30;;;;;;6128594;23;20422;-81
2022/07/17 05:31:33;;;;;;;1.50;1.00;;;17.20;92.00;;;;;;6130144;23;20430;-82
2022/07/17 05:34:02;;;;;;;1.50;1.00;;;17.30;92.20;;;;;;6131678;23;20554;-82
2022/07/17 05:36:29;;;;;;;1.47;0.93;;;17.60;90.70;;;;;;6131322;23;20477;-81
2022/07/17 05:38:56;;;;;;;1.43;0.90;;;17.80;89.80;;;;;;6142041;23;20424;-80
2022/07/17 05:41:23;;;;;;;1.50;0.90;;;17.90;89.70;;;;;;6122184;23;20533;-84
2022/07/17 05:43:50;;;;;;;1.47;0.90;;;18.00;89.50;;;;;;6129065;23;20758;-82
2022/07/17 05:46:17;;;;;;;1.47;0.90;;;18.20;89.10;;;;;;6122763;23;20504;-83
2022/07/17 05:48:44;;;;;;;1.43;0.90;;;18.30;88.40;;;;;;6125416;23;20422;-83
2022/07/17 05:51:13;;;;;;;1.47;0.90;;;18.50;88.10;;;;;;6124812;23;20442;-82
2022/07/17 05:53:40;;;;;;;1.47;0.90;;;18.50;87.20;;;;;;6123568;23;20421;-83
2022/07/17 05:56:08;;;;;;;1.50;0.90;;;18.60;87.30;;;;;;6125475;23;20425;-82
2022/07/17 05:58:35;;;;;;;1.43;0.90;;;18.80;86.80;;;;;;6125662;23;20449;-84
2022/07/17 06:01:02;;;;;;;1.43;0.90;;;19.00;86.70;;;;;;6125011;23;20501;-83
2022/07/17 06:03:30;;;;;;;1.50;0.90;;;19.20;86.10;;;;;;6124936;23;20713;-83
2022/07/17 06:05:57;;;;;;;1.43;0.90;;;19.40;86.30;;;;;;6123689;23;20509;-83
2022/07/17 06:08:25;;;;;;;1.57;1.17;;;19.70;85.20;;;;;;6125370;23;20481;-82
2022/07/17 06:10:53;;;;;;;1.50;0.90;;;19.80;84.40;;;;;;6124910;23;20757;-84
2022/07/17 06:13:20;;;;;;;1.47;0.90;;;20.00;83.80;;;;;;6126453;23;20422;-82
2022/07/17 06:15:48;;;;;;;1.47;0.90;;;20.20;84.10;;;;;;6127729;23;20426;-85
2022/07/17 06:18:36;;;;;;;1.47;0.90;;;20.50;82.90;;;;;;6138433;23;20479;-85
2022/07/17 06:21:10;;;;;;;1.47;0.90;;;20.70;82.10;;;;;;6137949;23;20448;-84
2022/07/17 06:23:39;;;;;;;1.47;0.90;;;21.00;80.80;;;;;;6128792;23;20429;-85
2022/07/17 06:26:07;;;;;;;1.47;0.90;;;21.10;79.30;;;;;;6129434;23;20421;-82
2022/07/17 06:28:34;;;;;;;1.43;0.90;;;21.10;79.10;;;;;;6130896;23;20429;-84
2022/07/17 06:31:02;;;;;;;1.50;1.00;;;21.10;78.70;;;;;;6124141;23;20515;-82
2022/07/17 06:33:29;;;;;;;1.47;0.90;;;21.20;79.30;;;;;;6125046;23;20430;-82
2022/07/17 06:35:56;;;;;;;1.50;0.90;;;21.30;79.10;;;;;;6140731;23;20489;-82
2022/07/17 06:38:24;;;;;;;1.43;0.90;;;21.60;78.80;;;;;;6142611;23;20454;-82
2022/07/17 06:40:52;;;;;;;1.50;0.90;;;21.80;78.00;;;;;;6130347;23;20449;-81
2022/07/17 06:43:20;;;;;;;1.43;0.90;;;22.00;78.10;;;;;;6131624;23;20766;-82
2022/07/17 06:45:47;;;;;;;1.47;0.90;;;21.90;78.00;;;;;;6126118;23;20991;-82
2022/07/17 06:48:14;;;;;;;1.50;0.90;;;22.00;78.00;;;;;;6140317;23;20481;-83
2022/07/17 06:50:42;;;;;;;1.50;0.90;;;22.10;76.90;;;;;;6128345;23;20446;-83
2022/07/17 06:53:09;;;;;;;1.47;0.87;;;22.20;76.40;;;;;;6126657;23;20500;-83
2022/07/17 06:55:37;;;;;;;1.43;0.90;;;22.30;76.00;;;;;;6136325;23;20985;-81
2022/07/17 06:58:06;;;;;;;1.50;0.90;;;22.40;75.60;;;;;;6126500;23;20456;-84
2022/07/17 07:00:33;;;;;;;1.47;0.90;;;22.30;76.00;;;;;;6127324;23;20453;-82
2022/07/17 07:03:00;;;;;;;1.50;0.90;;;22.40;76.10;;;;;;6126351;23;20488;-82
2022/07/17 07:05:27;;;;;;;1.50;0.90;;;22.60;76.20;;;;;;6125171;23;20928;-82
2022/07/17 07:07:55;;;;;;;1.47;0.90;;;23.00;75.10;;;;;;6125337;23;20422;-82
2022/07/17 07:10:22;;;;;;;1.47;0.90;;;23.30;75.40;;;;;;6124581;23;20445;-82
2022/07/17 07:12:49;;;;;;;1.43;0.90;;;23.60;73.40;;;;;;6122978;23;20736;-82
2022/07/17 07:15:18;;;;;;;1.47;0.87;;;23.90;71.60;;;;;;6123165;23;20939;-82
2022/07/17 07:17:46;;;;;;;1.43;0.87;;;24.00;70.90;;;;;;6123491;23;20816;-82
2022/07/17 07:20:13;;;;;;;1.47;0.80;;;24.30;71.20;;;;;;6125188;23;20440;-82
2022/07/17 07:22:40;;;;;;;1.47;0.90;;;24.50;70.30;;;;;;6134281;23;20417;-82
2022/07/17 07:25:08;;;;;;;1.50;0.90;;;24.80;69.90;;;;;;6122707;23;20432;-82
2022/07/17 07:27:35;;;;;;;1.50;0.90;;;25.00;68.70;;;;;;6133503;23;20422;-80
2022/07/17 07:30:02;;;;;;;1.50;0.80;;;25.10;68.50;;;;;;6123401;23;20525;-81
2022/07/17 07:32:31;;;;;;;1.50;0.90;;;25.10;68.80;;;;;;6122989;23;20433;-80
2022/07/17 07:34:58;;;;;;;1.47;0.80;;;25.10;69.00;;;;;;6134469;23;20414;-83
2022/07/17 07:37:25;;;;;;;1.50;0.80;;;25.10;68.40;;;;;;6125920;23;20790;-82
2022/07/17 07:39:53;;;;;;;1.47;0.90;;;25.10;69.00;;;;;;6123356;23;20449;-82
2022/07/17 07:42:20;;;;;;;1.50;0.80;;;25.10;68.50;;;;;;6122482;23;20501;-81
2022/07/17 07:44:47;;;;;;;1.47;0.80;;;25.30;68.80;;;;;;6124490;23;20425;-82
2022/07/17 07:47:14;;;;;;;1.73;1.63;;;25.30;68.20;;;;;;6122903;23;20488;-82
2022/07/17 07:49:43;;;;;;;1.50;0.80;;;25.40;69.20;;;;;;6122224;23;20421;-81
2022/07/17 07:52:10;;;;;;;1.50;0.80;;;25.40;67.70;;;;;;6121739;23;20429;-82
2022/07/17 07:54:37;;;;;;;1.43;0.90;;;25.40;67.70;;;;;;6122856;23;20422;-82
2022/07/17 07:57:04;;;;;;;1.50;0.80;;;25.60;67.10;;;;;;6122301;23;20477;-81
2022/07/17 07:59:32;;;;;;;1.47;0.90;;;25.80;66.60;;;;;;6122456;23;20812;-82
2022/07/17 08:02:00;;;;;;;1.50;0.80;;;26.10;67.30;;;;;;6122908;23;21026;-82
2022/07/17 08:04:27;;;;;;;1.47;0.90;;;26.20;66.20;;;;;;6125816;23;20761;-81
2022/07/17 08:06:56;;;;;;;1.43;0.80;;;26.30;65.60;;;;;;6124915;23;20931;-82
2022/07/17 08:09:23;;;;;;;1.40;0.83;;;26.40;64.80;;;;;;6135286;23;20892;-83
2022/07/17 08:11:50;;;;;;;1.43;0.80;;;26.40;65.60;;;;;;6116814;23;20550;-82
2022/07/17 08:14:17;;;;;;;1.43;0.80;;;26.30;65.50;;;;;;6127839;23;20421;-82
2022/07/17 08:16:45;;;;;;;1.50;0.90;;;26.40;65.60;;;;;;6127266;23;20425;-83
2022/07/17 08:19:12;;;;;;;1.40;0.80;;;26.60;65.40;;;;;;6128573;23;20476;-82
2022/07/17 08:21:43;;;;;;;1.40;0.80;;;26.70;65.70;;;;;;6129541;23;20513;-82
2022/07/17 08:24:11;;;;;;;1.50;0.87;;;26.70;65.20;;;;;;6140782;23;20449;-83
2022/07/17 08:26:38;;;;;;;1.47;0.80;;;26.80;64.60;;;;;;6125265;23;20643;-83
2022/07/17 08:29:06;;;;;;;1.40;0.90;;;27.00;64.40;;;;;;6139838;23;20413;-82
2022/07/17 08:31:33;;;;;;;1.47;0.80;;;27.20;63.30;;;;;;6128156;23;20437;-81
2022/07/17 08:34:00;;;;;;;1.43;0.80;;;27.30;63.80;;;;;;6129059;23;20595;-83
2022/07/17 08:36:26;;;;;;;1.43;0.80;;;27.30;64.00;;;;;;6126811;23;20417;-82
2022/07/17 08:38:54;;;;;;;1.40;0.80;;;27.50;62.60;;;;;;6128006;23;20484;-82
2022/07/17 08:41:23;;;;;;;1.47;0.80;;;27.70;61.90;;;;;;6125766;23;20452;-81
2022/07/17 08:43:50;;;;;;;1.47;0.80;;;27.80;62.60;;;;;;6134993;23;20425;-82
2022/07/17 08:46:19;;;;;;;1.50;0.80;;;27.90;61.90;;;;;;6134725;23;20424;-82
2022/07/17 08:48:47;;;;;;;1.50;0.80;;;28.20;61.90;;;;;;6134333;23;20421;-81
2022/07/17 08:51:17;;;;;;;1.50;0.80;;;28.40;61.00;;;;;;6135535;23;20472;-81
2022/07/17 08:53:45;;;;;;;6.30;3.70;;;28.50;60.10;;;;;;6134329;23;20798;-82
2022/07/17 08:56:13;;;;;;;1.43;0.90;;;28.70;60.00;;;;;;6127109;23;20453;-82
2022/07/17 08:58:41;;;;;;;1.43;0.80;;;28.80;58.10;;;;;;6125849;23;20456;-79
2022/07/17 09:01:08;;;;;;;1.43;0.90;;;28.70;57.60;;;;;;6124575;23;20441;-81
2022/07/17 09:03:36;;;;;;;1.50;0.80;;;28.80;59.00;;;;;;6133499;23;20517;-77
2022/07/17 09:06:03;;;;;;;1.43;0.80;;;28.90;58.00;;;;;;6122069;23;20422;-77
2022/07/17 09:08:33;;;;;;;1.47;0.80;;;28.90;58.10;;;;;;6119024;23;20505;-78
2022/07/17 09:11:00;;;;;;;1.43;0.80;;;29.00;57.50;;;;;;6119271;23;20484;-79
2022/07/17 09:13:29;;;;;;;1.47;0.80;;;29.00;57.90;;;;;;6122016;23;20472;-78
2022/07/17 09:16:00;;;;;;;1.50;1.00;;;29.20;56.80;;;;;;6119846;23;20767;-78
2022/07/17 09:18:27;;;;;;;1.43;0.80;;;29.30;56.90;;;;;;6121506;23;20505;-78
2022/07/17 09:20:57;;;;;;;1.43;0.80;;;29.40;57.30;;;;;;6121889;23;20929;-80
2022/07/17 09:23:26;;;;;;;1.43;0.80;;;29.50;57.30;;;;;;6122606;23;20421;-82
2022/07/17 09:25:55;;;;;;;1.40;0.80;;;29.50;56.50;;;;;;6127875;23;20429;-81
2022/07/17 09:28:23;;;;;;;1.47;0.90;;;29.50;57.70;;;;;;6121674;23;20457;-79
2022/07/17 09:30:53;;;;;;;1.40;0.80;;;29.60;56.70;;;;;;6121857;23;20529;-80
2022/07/17 09:33:23;;;;;;;1.47;0.90;;;29.70;57.30;;;;;;6131935;23;20425;-78
2022/07/17 09:35:52;;;;;;;1.47;0.80;;;29.90;56.60;;;;;;6121945;23;20405;-80
2022/07/17 09:38:27;;;;;;;1.40;0.80;;;29.90;56.70;;;;;;6121388;23;20449;-79
2022/07/17 09:41:12;;;;;;;1.43;0.80;;;30.00;56.60;;;;;;6120855;23;20967;-80
2022/07/17 09:43:44;;;;;;;1.40;0.80;;;30.10;56.40;;;;;;6121069;23;20491;-79
2022/07/17 09:46:14;;;;;;;1.43;0.80;;;30.20;56.00;;;;;;6131015;23;20418;-80
2022/07/17 09:48:47;;;;;;;1.50;0.80;;;30.30;55.70;;;;;;6122008;23;20428;-79
2022/07/17 09:51:22;;;;;;;1.43;0.80;;;30.40;56.20;;;;;;6122338;23;20249;-79
2022/07/17 09:53:52;;;;;;;1.40;0.80;;;30.50;54.60;;;;;;6123352;23;20181;-79
2022/07/17 09:56:21;;;;;;;1.40;0.80;;;30.60;55.20;;;;;;6122226;23;20510;-78
2022/07/17 09:58:51;;;;;;;1.47;0.80;;;30.70;55.50;;;;;;6121642;23;20284;-77
2022/07/17 10:01:19;;;;;;;1.47;0.80;;;30.70;55.10;;;;;;6119698;23;20536;-78
2022/07/17 10:04:10;;;;;;;1.43;0.80;;;30.70;54.30;;;;;;6123639;23;20189;-79
2022/07/17 10:06:39;;;;;;;1.43;0.80;;;30.70;53.60;;;;;;6125337;23;20405;-78
2022/07/17 10:09:06;;;;;;;1.40;0.80;;;30.80;55.20;;;;;;6121927;23;20177;-78
2022/07/17 10:11:36;;;;;;;1.50;0.80;;;30.60;54.70;;;;;;6123759;23;20452;-80
2022/07/17 10:14:06;;;;;;;1.47;0.80;;;30.60;54.90;;;;;;6123255;23;20428;-80
2022/07/17 10:16:36;;;;;;;1.40;0.80;;;30.70;53.70;;;;;;6125109;23;20480;-79
2022/07/17 10:19:16;;;;;;;1.40;0.80;;;30.90;54.30;;;;;;6123414;23;20201;-78
2022/07/17 10:21:54;;;;;;;1.40;0.80;;;31.00;53.60;;;;;;6128706;23;20207;-77
2022/07/17 10:24:22;;;;;;;1.40;0.80;;;31.00;53.90;;;;;;6134639;23;20635;-78
2022/07/17 10:26:50;;;;;;;1.40;0.80;;;31.00;54.90;;;;;;6124808;23;20421;-78
2022/07/17 10:29:32;;;;;;;1.40;0.80;;;31.00;55.50;;;;;;6136436;23;20177;-79
2022/07/17 10:32:02;;;;;;;1.40;0.80;;;31.10;52.90;;;;;;6102414;23;20458;-78
2022/07/17 10:34:46;;;;;;;1.43;0.80;;;31.30;54.60;;;;;;6130716;23;20393;-78
2022/07/17 10:37:22;;;;;;;1.40;0.80;;;31.50;54.40;;;;;;6120451;23;20405;-77
2022/07/17 10:40:12;;;;;;;1.40;0.80;;;31.70;53.70;;;;;;6120530;23;20173;-77
2022/07/17 10:42:46;;;;;;;1.40;0.80;;;31.80;52.30;;;;;;6114767;23;20201;-78
2022/07/17 10:45:15;;;;;;;1.43;0.83;;;31.90;51.40;;;;;;6120036;23;20771;-77
2022/07/17 10:47:51;;;;;;;1.40;0.80;;;32.00;52.00;;;;;;6119133;23;20213;-77
2022/07/17 10:50:22;;;;;;;1.43;0.80;;;32.20;52.70;;;;;;6120419;23;20166;-77
2022/07/17 10:53:07;;;;;;;1.43;0.80;;;32.30;51.50;;;;;;6119299;23;20213;-78
2022/07/17 10:55:35;;;;;;;1.40;0.80;;;32.50;51.90;;;;;;6120126;23;20197;-79
2022/07/17 10:58:02;;;;;;;1.40;0.80;;;32.60;51.90;;;;;;6121565;23;20422;-77
2022/07/17 11:00:29;;;;;;;1.43;0.80;;;32.80;50.30;;;;;;6121979;23;20261;-79
2022/07/17 11:02:57;;;;;;;1.40;0.80;;;32.70;51.00;;;;;;6121802;23;20276;-77
2022/07/17 11:05:25;;;;;;;1.40;0.80;;;32.60;50.10;;;;;;6131425;23;20174;-79
2022/07/17 11:07:58;;;;;;;1.40;0.80;;;32.70;52.80;;;;;;6122300;23;20673;-77
2022/07/17 11:10:26;;;;;;;1.40;0.80;;;32.80;52.00;;;;;;6121976;23;20181;-78
2022/07/17 11:12:54;;;;;;;1.40;0.80;;;32.80;52.10;;;;;;6120892;23;20276;-79
2022/07/17 11:15:21;;;;;;;1.40;0.80;;;32.60;52.20;;;;;;6122696;23;20667;-79
2022/07/17 11:17:50;;;;;;;1.40;0.80;;;32.70;51.40;;;;;;6121531;23;20216;-78
2022/07/17 11:20:18;;;;;;;1.40;0.80;;;32.70;50.30;;;;;;6122323;23;20189;-77
2022/07/17 11:22:47;;;;;;;1.75;1.33;;;32.90;51.50;;;;;;6121737;23;20688;-77
2022/07/17 11:25:14;;;;;;;1.40;0.80;;;33.00;51.00;;;;;;6123642;23;20177;-78
2022/07/17 11:27:41;;;;;;;1.40;0.80;;;33.10;50.00;;;;;;6122891;23;20560;-78
2022/07/17 11:30:15;;;;;;;1.40;0.80;;;33.10;50.70;;;;;;6122321;23;20194;-78
2022/07/17 11:32:42;;;;;;;1.40;0.80;;;33.20;51.70;;;;;;6121524;23;20215;-78
2022/07/17 11:35:18;;;;;;;1.40;0.80;;;33.00;51.20;;;;;;6122779;23;20675;-78
2022/07/17 11:37:48;;;;;;;1.40;0.80;;;32.90;51.80;;;;;;6125889;23;20256;-78
2022/07/17 11:40:16;;;;;;;1.40;0.80;;;32.90;51.20;;;;;;6120783;23;20192;-79
2022/07/17 11:42:44;;;;;;;1.40;0.80;;;32.80;49.70;;;;;;6119372;23;20204;-78
2022/07/17 11:45:11;;;;;;;1.40;0.80;;;32.80;51.20;;;;;;6118716;23;20178;-78
2022/07/17 11:47:43;;;;;;;1.40;0.80;;;32.90;50.60;;;;;;6119899;23;20185;-79
2022/07/17 11:50:12;;;;;;;1.40;0.80;;;33.10;49.10;;;;;;6120099;23;20251;-79
2022/07/17 11:52:45;;;;;;;1.40;0.80;;;33.10;50.30;;;;;;6121275;23;20201;-79
2022/07/17 11:55:15;;;;;;;1.40;0.80;;;33.00;48.50;;;;;;6122453;23;20234;-78
2022/07/17 11:57:45;;;;;;;1.40;0.90;;;33.10;51.20;;;;;;6123227;23;20183;-79
2022/07/17 12:00:16;;;;;;;1.40;0.80;;;33.00;50.30;;;;;;6122725;23;20702;-79
2022/07/17 12:02:46;;;;;;;1.40;0.80;;;32.90;49.30;;;;;;6124500;23;20603;-78
2022/07/17 12:05:15;;;;;;;1.40;0.80;;;32.60;50.00;;;;;;6124953;23;20178;-77
2022/07/17 12:07:46;;;;;;;1.40;0.80;;;32.60;51.10;;;;;;6129421;23;20661;-78
2022/07/17 12:10:21;;;;;;;1.40;0.80;;;32.70;50.70;;;;;;6131143;23;20240;-81
2022/07/17 12:12:59;;;;;;;1.40;0.80;;;32.70;50.30;;;;;;6129593;23;20260;-77
2022/07/17 12:15:38;;;;;;;1.40;0.80;;;32.80;51.10;;;;;;6139582;23;20567;-78
2022/07/17 12:18:06;;;;;;;1.40;0.80;;;32.80;50.20;;;;;;6140894;23;20602;-79
2022/07/17 12:20:44;;;;;;;1.40;0.80;;;33.00;49.70;;;;;;6138882;23;20173;-80
2022/07/17 12:23:27;;;;;;;1.40;0.80;;;33.20;49.40;;;;;;6131701;23;20379;-79
2022/07/17 12:26:06;;;;;;;1.40;0.80;;;33.20;48.20;;;;;;6122224;23;20208;-80
2022/07/17 12:28:34;;;;;;;1.40;0.80;;;33.30;48.70;;;;;;6123342;23;20241;-79
2022/07/17 12:31:01;;;;;;;1.40;0.80;;;33.30;48.80;;;;;;6121827;23;20216;-82
2022/07/17 12:33:29;;;;;;;1.40;0.80;;;33.30;48.50;;;;;;6122080;23;20217;-80
2022/07/17 12:35:58;;;;;;;1.40;0.80;;;33.30;49.00;;;;;;6131618;23;20181;-78
2022/07/17 12:38:25;;;;;;;1.40;0.80;;;33.40;48.90;;;;;;6125865;23;20248;-79
2022/07/17 12:40:52;;;;;;;1.40;0.80;;;33.20;48.90;;;;;;6123705;23;20313;-82
2022/07/17 12:43:21;;;;;;;1.40;0.80;;;33.30;48.30;;;;;;6123206;23;20209;-78
2022/07/17 12:45:48;;;;;;;2.55;1.63;;;33.50;48.30;;;;;;6123555;23;20185;-80
2022/07/17 12:48:16;;;;;;;1.40;0.80;;;33.50;48.70;;;;;;6128439;23;20181;-80
2022/07/17 12:50:43;;;;;;;1.40;0.80;;;33.40;47.70;;;;;;6122906;23;20497;-78
2022/07/17 12:53:11;;;;;;;1.40;0.80;;;33.30;48.70;;;;;;6128616;23;20261;-80
2022/07/17 12:55:38;;;;;;;1.40;0.80;;;33.10;48.90;;;;;;6121802;23;20581;-79
2022/07/17 12:58:06;;;;;;;1.40;0.80;;;33.20;47.50;;;;;;6123079;23;20267;-79
2022/07/17 13:00:34;;;;;;;1.40;0.80;;;33.00;48.00;;;;;;6121965;23;20302;-78